createdAt,value
2022-08-09T00:02:29.667Z,102728.84
2022-08-09T00:07:31.606Z,102716.22
2022-08-09T00:12:46.628Z,102721.91
2022-08-09T00:18:05.425Z,102714.78
2022-08-09T00:23:56.010Z,102716.41
2022-08-09T00:28:35.221Z,102724.78
2022-08-09T00:33:50.521Z,102722.50
2022-08-09T00:38:53.157Z,102724.97
2022-08-09T00:44:19.799Z,102716.06
2022-08-09T00:49:16.521Z,102717.41
2022-08-09T00:54:19.567Z,102708.94
2022-08-09T00:59:41.378Z,102710.16
2022-08-09T01:04:57.951Z,102711.13
2022-08-09T01:10:05.058Z,102725.34
2022-08-09T01:15:17.055Z,102725.91
2022-08-09T01:20:43.156Z,102719.00
2022-08-09T01:26:09.003Z,102716.59
2022-08-09T01:32:29.084Z,102711.78
2022-08-09T01:36:40.176Z,102720.56
2022-08-09T01:41:53.468Z,102721.59
2022-08-09T01:47:00.871Z,102724.38
2022-08-09T01:52:06.972Z,102716.28
2022-08-09T01:57:16.333Z,102721.34
2022-08-09T02:02:23.601Z,102722.50
2022-08-09T02:08:40.559Z,102710.69
2022-08-09T02:13:02.902Z,102716.19
2022-08-09T02:18:10.612Z,102719.50
2022-08-09T02:23:23.214Z,102716.25
2022-08-09T02:28:37.759Z,102712.66
2022-08-09T02:34:07.043Z,102704.16
2022-08-09T02:39:14.369Z,102697.53
2022-08-09T02:44:29.343Z,102713.75
2022-08-09T02:49:41.451Z,102706.69
2022-08-09T02:54:54.480Z,102703.41
2022-08-09T03:00:21.278Z,102700.13
2022-08-09T03:05:22.937Z,102710.53
2022-08-09T03:10:26.963Z,102718.91
2022-08-09T03:15:40.479Z,102720.13
2022-08-09T03:20:52.243Z,102716.91
2022-08-09T03:26:03.264Z,102710.84
2022-08-09T03:31:21.033Z,102726.69
2022-08-09T03:36:27.552Z,102722.03
2022-08-09T03:41:45.844Z,102745.28
2022-08-09T03:46:50.412Z,102745.13
2022-08-09T03:52:00.080Z,102742.09
2022-08-09T03:57:18.627Z,102738.28
2022-08-09T04:02:27.942Z,102737.78
2022-08-09T04:07:47.210Z,102738.69
2022-08-09T04:12:53.910Z,102747.34
2022-08-09T04:17:57.787Z,102744.59
2022-08-09T04:22:59.776Z,102749.53
2022-08-09T04:28:03.531Z,102753.53
2022-08-09T04:33:05.539Z,102752.66
2022-08-09T04:38:23.433Z,102748.16
2022-08-09T04:43:25.778Z,102749.56
2022-08-09T04:48:33.733Z,102754.06
2022-08-09T04:53:35.322Z,102755.13
2022-08-09T04:58:37.926Z,102757.84
2022-08-09T05:03:42.632Z,102758.53
2022-08-09T05:08:47.824Z,102761.13
2022-08-09T05:13:49.729Z,102765.63
2022-08-09T05:18:59.138Z,102775.78
2022-08-09T05:24:03.982Z,102776.25
2022-08-09T05:29:06.485Z,102779.00
2022-08-09T05:34:08.065Z,102779.53
2022-08-09T05:39:28.194Z,102781.22
2022-08-09T05:44:32.658Z,102782.78
2022-08-09T05:50:26.836Z,102786.56
2022-08-09T05:54:57.943Z,102786.75
2022-08-09T06:00:07.914Z,102800.84
2022-08-09T06:05:13.887Z,102805.66
2022-08-09T06:10:17.915Z,102805.00
2022-08-09T06:15:19.810Z,102796.22
2022-08-09T06:20:21.751Z,102818.59
2022-08-09T06:25:23.959Z,102816.09
2022-08-09T06:30:25.669Z,102819.09
2022-08-09T06:35:55.834Z,102820.25
2022-08-09T06:40:49.905Z,102824.41
2022-08-09T06:46:06.904Z,102829.59
2022-08-09T06:51:12.281Z,102836.16
2022-08-09T06:56:16.401Z,102837.06
2022-08-09T07:01:21.497Z,102835.34
2022-08-09T07:06:28.038Z,102827.94
2022-08-09T07:11:45.634Z,102831.41
2022-08-09T07:16:58.017Z,102836.19
2022-08-09T07:22:01.170Z,102840.59
2022-08-09T07:27:04.203Z,102830.56
2022-08-09T07:32:12.828Z,102827.00
2022-08-09T07:37:15.845Z,102833.88
2022-08-09T07:42:18.047Z,102833.03
2022-08-09T07:47:21.050Z,102837.75
2022-08-09T07:52:22.812Z,102838.00
2022-08-09T07:57:35.895Z,102844.81
2022-08-09T08:02:42.397Z,102844.81
2022-08-09T08:08:43.396Z,102848.28
2022-08-09T08:13:06.182Z,102849.06
2022-08-09T08:18:14.378Z,102839.97
2022-08-09T08:23:18.565Z,102845.28
2022-08-09T08:28:25.697Z,102835.50
2022-08-09T08:33:52.231Z,102842.56
2022-08-09T08:38:56.356Z,102846.94
2022-08-09T08:44:02.482Z,102849.66
2022-08-09T08:49:05.825Z,102852.84
2022-08-09T08:54:10.170Z,102855.50
2022-08-09T08:59:22.024Z,102862.00
2022-08-09T09:05:57.520Z,102867.56
2022-08-09T09:10:44.959Z,102854.97
2022-08-09T09:15:51.409Z,102857.16
2022-08-09T09:20:59.094Z,102861.09
2022-08-09T09:26:11.975Z,102873.69
2022-08-09T09:32:06.131Z,102874.41
2022-08-09T09:36:49.656Z,102866.94
2022-08-09T09:41:57.297Z,102862.63
2022-08-09T09:47:09.078Z,102856.97
2022-08-09T09:52:53.591Z,102864.69
2022-08-09T09:58:02.799Z,102867.50
2022-08-09T10:03:09.388Z,102859.38
2022-08-09T10:08:27.751Z,102871.31
2022-08-09T10:14:30.579Z,102868.28
2022-08-09T10:19:36.881Z,102863.16
2022-08-09T10:24:40.439Z,102848.25
2022-08-09T10:30:49.413Z,102848.22
2022-08-09T10:35:17.741Z,102841.97
2022-08-09T10:40:34.957Z,102845.44
2022-08-09T10:45:49.273Z,102840.44
2022-08-09T10:51:18.399Z,102835.91
2022-08-09T10:56:25.794Z,102844.69
2022-08-09T11:03:15.933Z,102841.59
2022-08-09T11:06:57.806Z,102840.84
2022-08-09T11:12:12.610Z,102853.00
2022-08-09T11:17:14.182Z,102847.75
2022-08-09T11:22:21.572Z,102845.47
2022-08-09T11:28:04.172Z,102837.13
2022-08-09T11:33:13.686Z,102833.78
2022-08-09T11:38:28.668Z,102815.41
2022-08-09T11:43:34.918Z,102822.28
2022-08-09T11:48:52.178Z,102820.63
2022-08-09T11:54:28.542Z,102830.50
2022-08-09T11:59:35.455Z,102821.03
2022-08-09T12:04:40.265Z,102819.63
2022-08-09T12:09:50.838Z,102814.22
2022-08-09T12:15:07.657Z,102813.94
2022-08-09T12:20:21.331Z,102810.25
2022-08-09T12:25:32.055Z,102811.75
2022-08-09T12:30:39.761Z,102808.38
2022-08-09T12:35:43.030Z,102795.31
2022-08-09T12:40:46.616Z,102796.31
2022-08-09T12:45:59.979Z,102794.09
2022-08-09T12:51:03.957Z,102802.34
2022-08-09T12:56:34.880Z,102797.94
2022-08-09T13:01:48.981Z,102791.44
2022-08-09T13:06:54.153Z,102789.72
2022-08-09T13:12:02.551Z,102780.06
2022-08-09T13:17:14.166Z,102775.22
2022-08-09T13:22:38.314Z,102764.69
2022-08-09T13:27:54.904Z,102759.69
2022-08-09T13:32:58.107Z,102763.75
2022-08-09T13:38:00.266Z,102766.09
2022-08-09T13:43:05.113Z,102761.19
2022-08-09T13:48:11.186Z,102747.97
2022-08-09T13:53:12.826Z,102744.16
2022-08-09T13:58:14.594Z,102745.53
2022-08-09T14:04:05.499Z,102745.13
2022-08-09T14:08:41.202Z,102736.91
2022-08-09T14:14:22.379Z,102743.66
2022-08-09T14:19:07.237Z,102738.13
2022-08-09T14:24:21.993Z,102733.59
2022-08-09T14:30:15.123Z,102731.78
2022-08-09T14:34:46.922Z,102728.16
2022-08-09T14:39:57.579Z,102718.22
2022-08-09T14:46:39.673Z,102714.78
2022-08-09T14:50:33.182Z,102717.44
2022-08-09T14:55:35.959Z,102708.38
2022-08-09T15:00:37.722Z,102725.53
2022-08-09T15:05:52.290Z,102720.91
2022-08-09T15:11:00.269Z,102723.38
2022-08-09T15:16:55.191Z,102727.56
2022-08-09T15:22:01.614Z,102723.47
2022-08-09T15:27:05.497Z,102710.63
2022-08-09T15:32:39.253Z,102710.03
2022-08-09T15:37:56.858Z,102707.56
2022-08-09T15:42:58.746Z,102701.78
2022-08-09T15:48:05.103Z,102702.53
2022-08-09T15:53:18.530Z,102701.81
2022-08-09T15:58:31.071Z,102697.72
2022-08-09T16:03:38.585Z,102695.63
2022-08-09T16:08:44.559Z,102693.34
2022-08-09T16:14:04.958Z,102696.88
2022-08-09T16:19:10.304Z,102694.88
2022-08-09T16:24:30.033Z,102693.25
2022-08-09T16:29:37.903Z,102697.63
2022-08-09T16:34:57.769Z,102693.34
2022-08-09T16:40:05.525Z,102688.13
2022-08-09T16:45:08.271Z,102681.19
2022-08-09T16:50:32.601Z,102684.09
2022-08-09T16:55:58.494Z,102683.13
2022-08-09T17:00:53.550Z,102683.44
2022-08-09T17:06:06.911Z,102686.44
2022-08-09T17:11:11.195Z,102679.97
2022-08-09T17:16:12.767Z,102690.88
2022-08-09T17:21:15.261Z,102685.16
2022-08-09T17:26:17.681Z,102684.63
2022-08-09T17:31:38.964Z,102687.81
2022-08-09T17:36:53.428Z,102689.88
2022-08-09T17:41:55.416Z,102693.75
2022-08-09T17:47:05.975Z,102691.09
2022-08-09T17:52:21.968Z,102685.78
2022-08-09T17:58:03.585Z,102684.13
2022-08-09T18:02:57.990Z,102685.31
2022-08-09T18:08:00.365Z,102676.34
2022-08-09T18:13:39.363Z,102678.47
2022-08-09T18:18:32.609Z,102681.38
2022-08-09T18:24:10.694Z,102682.75
2022-08-09T18:30:37.881Z,102680.69
2022-08-09T18:34:20.342Z,102682.75
2022-08-09T18:39:32.325Z,102682.00
2022-08-09T18:44:35.828Z,102684.38
2022-08-09T18:49:46.734Z,102681.09
2022-08-09T18:54:52.911Z,102676.66
2022-08-09T19:00:01.676Z,102687.91
2022-08-09T19:05:19.681Z,102693.31
2022-08-09T19:10:26.847Z,102690.78
2022-08-09T19:15:28.452Z,102698.78
2022-08-09T19:20:34.169Z,102704.19
2022-08-09T19:26:01.079Z,102708.72
2022-08-09T19:30:58.451Z,102710.22
2022-08-09T19:36:01.700Z,102725.31
2022-08-09T19:41:03.498Z,102716.47
2022-08-09T19:46:05.850Z,102721.66
2022-08-09T19:51:07.582Z,102723.97
2022-08-09T19:56:15.421Z,102726.56
2022-08-09T20:01:17.530Z,102731.09
2022-08-09T20:06:23.689Z,102733.66
2022-08-09T20:11:33.945Z,102722.88
2022-08-09T20:16:53.182Z,102724.97
2022-08-09T20:21:59.957Z,102734.25
2022-08-09T20:27:07.925Z,102743.25
2022-08-09T20:32:30.808Z,102749.44
2022-08-09T20:38:19.450Z,102741.47
2022-08-09T20:43:00.147Z,102740.94
2022-08-09T20:48:21.113Z,102732.28
2022-08-09T20:53:36.587Z,102732.53
2022-08-09T20:58:43.511Z,102744.38
2022-08-09T21:05:49.246Z,102746.03
2022-08-09T21:09:45.567Z,102741.28
2022-08-09T21:14:49.165Z,102740.59
2022-08-09T21:20:05.077Z,102740.78
2022-08-09T21:25:37.754Z,102732.06
2022-08-09T21:30:41.300Z,102725.94
2022-08-09T21:35:50.658Z,102731.34
2022-08-09T21:40:53.461Z,102739.09
2022-08-09T21:45:56.421Z,102731.91
2022-08-09T21:50:59.893Z,102736.59
2022-08-09T21:56:33.641Z,102717.19
2022-08-09T22:01:59.168Z,102725.28
2022-08-09T22:06:59.248Z,102729.56
2022-08-09T22:12:18.511Z,102730.03
2022-08-09T22:17:20.628Z,102736.44
2022-08-09T22:22:22.819Z,102733.06
2022-08-09T22:27:24.620Z,102738.19
2022-08-09T22:32:30.229Z,102737.47
2022-08-09T22:37:40.601Z,102743.97
2022-08-09T22:43:16.902Z,102742.50
2022-08-09T22:48:34.415Z,102728.94
2022-08-09T22:53:58.431Z,102730.91
2022-08-09T22:59:00.699Z,102727.47
2022-08-09T23:04:07.271Z,102730.34
2022-08-09T23:09:09.013Z,102726.59
2022-08-09T23:14:17.359Z,102726.94
2022-08-09T23:19:19.225Z,102721.69
2022-08-09T23:24:21.288Z,102725.13
2022-08-09T23:29:22.900Z,102717.13
2022-08-09T23:34:24.709Z,102722.91
2022-08-09T23:39:26.271Z,102718.66
2022-08-09T23:44:28.085Z,102715.47
2022-08-09T23:49:29.629Z,102706.66
2022-08-09T23:54:31.504Z,102709.03
2022-08-09T23:59:52.307Z,102711.84
